createdAt,value
2022-12-31T00:00:26.324Z,2.13
2022-12-31T00:02:54.038Z,3.25
2022-12-31T00:05:22.747Z,2.33
2022-12-31T00:07:50.364Z,2.08
2022-12-31T00:10:17.870Z,1.90
2022-12-31T00:12:45.448Z,1.98
2022-12-31T00:15:13.072Z,2.15
2022-12-31T00:17:40.786Z,1.67
2022-12-31T00:20:08.706Z,1.80
2022-12-31T00:22:36.396Z,2.08
2022-12-31T00:25:04.818Z,2.50
2022-12-31T00:27:33.020Z,2.72
2022-12-31T00:30:04.452Z,2.15
2022-12-31T00:32:32.703Z,1.85
2022-12-31T00:35:00.309Z,2.60
2022-12-31T00:37:28.737Z,2.05
2022-12-31T00:39:57.104Z,3.58
2022-12-31T00:42:25.019Z,2.53
2022-12-31T00:44:52.630Z,4.20
2022-12-31T00:47:20.212Z,1.58
2022-12-31T00:49:47.792Z,2.13
2022-12-31T00:52:16.861Z,1.38
2022-12-31T00:54:44.579Z,2.25
2022-12-31T00:57:12.314Z,4.07
2022-12-31T00:59:39.871Z,1.55
2022-12-31T01:02:07.791Z,2.03
2022-12-31T01:04:35.682Z,2.50
2022-12-31T01:07:03.542Z,2.20
2022-12-31T01:09:31.134Z,1.63
2022-12-31T01:11:58.926Z,2.28
2022-12-31T01:14:26.548Z,2.35
2022-12-31T01:16:54.599Z,2.00
2022-12-31T01:19:29.939Z,1.70
2022-12-31T01:21:58.118Z,1.77
2022-12-31T01:24:25.764Z,3.58
2022-12-31T01:26:57.695Z,2.63
2022-12-31T01:29:26.869Z,4.03
2022-12-31T01:31:54.428Z,1.85
2022-12-31T01:34:22.033Z,2.42
2022-12-31T01:36:49.912Z,2.35
2022-12-31T01:39:17.692Z,2.25
2022-12-31T01:41:47.472Z,2.83
2022-12-31T01:44:26.966Z,2.92
2022-12-31T01:46:56.463Z,2.53
2022-12-31T01:49:26.406Z,2.50
2022-12-31T01:52:19.590Z,1.40
2022-12-31T01:55:15.891Z,2.40
2022-12-31T01:57:46.483Z,2.08
2022-12-31T02:00:14.921Z,1.77
2022-12-31T02:02:44.870Z,1.90
2022-12-31T02:05:19.580Z,1.88
2022-12-31T02:07:48.573Z,1.83
2022-12-31T02:10:16.287Z,1.75
2022-12-31T02:12:43.974Z,2.63
2022-12-31T02:15:11.721Z,2.10
2022-12-31T02:17:45.412Z,1.80
2022-12-31T02:20:18.883Z,2.55
2022-12-31T02:23:08.241Z,1.70
2022-12-31T02:25:45.287Z,1.40
2022-12-31T02:28:15.981Z,1.55
2022-12-31T02:30:47.333Z,3.10
2022-12-31T02:33:22.568Z,2.67
2022-12-31T02:36:05.987Z,1.90
2022-12-31T02:38:43.215Z,2.85
2022-12-31T02:41:33.608Z,1.70
2022-12-31T02:44:01.632Z,2.10
2022-12-31T02:46:42.603Z,2.00
2022-12-31T02:49:15.838Z,2.33
2022-12-31T02:51:54.627Z,2.45
2022-12-31T02:54:51.082Z,1.80
2022-12-31T02:57:34.508Z,1.90
2022-12-31T03:00:25.375Z,2.08
2022-12-31T03:02:54.059Z,1.50
2022-12-31T03:05:25.047Z,1.50
2022-12-31T03:07:54.127Z,2.88
2022-12-31T03:10:21.789Z,1.48
2022-12-31T03:12:51.185Z,1.63
2022-12-31T03:15:21.815Z,1.83
2022-12-31T03:18:07.683Z,1.25
2022-12-31T03:21:01.078Z,1.83
2022-12-31T03:23:38.494Z,1.67
2022-12-31T03:26:11.908Z,2.15
2022-12-31T03:28:41.771Z,2.30
2022-12-31T03:31:09.902Z,1.67
2022-12-31T03:33:40.733Z,2.05
2022-12-31T03:36:11.540Z,1.60
2022-12-31T03:38:39.289Z,2.20
2022-12-31T03:41:09.410Z,2.92
2022-12-31T03:43:37.073Z,2.10
2022-12-31T03:46:05.041Z,1.80
2022-12-31T03:48:32.685Z,1.52
2022-12-31T03:51:00.260Z,1.88
2022-12-31T03:53:27.908Z,1.77
2022-12-31T03:55:55.771Z,2.17
2022-12-31T03:58:23.358Z,1.85
2022-12-31T04:00:51.272Z,2.08
2022-12-31T04:03:18.979Z,2.13
2022-12-31T04:05:53.305Z,2.10
2022-12-31T04:08:21.000Z,1.80
2022-12-31T04:10:48.529Z,2.97
2022-12-31T04:13:16.178Z,2.30
2022-12-31T04:15:43.723Z,1.92
2022-12-31T04:18:11.491Z,2.35
2022-12-31T04:20:39.152Z,4.18
2022-12-31T04:23:06.736Z,2.25
2022-12-31T04:25:34.278Z,1.65
2022-12-31T04:28:01.896Z,2.40
2022-12-31T04:30:29.414Z,1.90
2022-12-31T04:32:57.169Z,2.97
2022-12-31T04:35:24.732Z,2.13
2022-12-31T04:37:52.308Z,2.10
2022-12-31T04:40:19.953Z,1.80
2022-12-31T04:42:47.495Z,1.90
2022-12-31T04:45:15.062Z,1.65
2022-12-31T04:47:43.630Z,1.60
2022-12-31T04:50:11.214Z,1.33
2022-12-31T04:52:42.949Z,2.25
2022-12-31T04:55:11.104Z,1.70
2022-12-31T04:57:38.898Z,1.60
2022-12-31T05:00:08.024Z,1.88
2022-12-31T05:02:35.700Z,1.97
2022-12-31T05:05:03.426Z,1.52
2022-12-31T05:07:31.053Z,1.50
2022-12-31T05:09:58.665Z,1.67
2022-12-31T05:12:26.409Z,1.42
2022-12-31T05:14:54.119Z,1.65
2022-12-31T05:17:21.880Z,1.33
2022-12-31T05:19:49.409Z,1.30
2022-12-31T05:22:29.101Z,2.35
2022-12-31T05:25:00.551Z,1.52
2022-12-31T05:27:31.413Z,1.48
2022-12-31T05:30:01.321Z,2.00
2022-12-31T05:32:29.061Z,1.83
2022-12-31T05:34:57.775Z,2.50
2022-12-31T05:37:26.251Z,2.40
2022-12-31T05:39:53.860Z,1.35
2022-12-31T05:42:22.063Z,1.50
2022-12-31T05:44:50.152Z,1.88
2022-12-31T05:47:17.989Z,1.52
2022-12-31T05:49:45.720Z,1.35
2022-12-31T05:52:13.392Z,1.40
2022-12-31T05:54:40.938Z,1.70
2022-12-31T05:57:08.622Z,1.50
2022-12-31T05:59:36.195Z,1.40
2022-12-31T06:02:04.230Z,1.42
2022-12-31T06:04:32.123Z,2.67
2022-12-31T06:06:59.769Z,2.58
2022-12-31T06:09:27.308Z,1.63
2022-12-31T06:11:55.119Z,2.08
2022-12-31T06:14:22.675Z,2.10
2022-12-31T06:16:50.300Z,1.52
2022-12-31T06:19:17.854Z,1.40
2022-12-31T06:21:45.609Z,0.98
2022-12-31T06:24:13.135Z,1.17
2022-12-31T06:26:40.851Z,1.40
2022-12-31T06:29:08.990Z,1.63
2022-12-31T06:31:37.345Z,2.42
2022-12-31T06:34:04.991Z,1.95
2022-12-31T06:36:32.751Z,1.92
2022-12-31T06:39:01.368Z,2.65
2022-12-31T06:41:29.089Z,2.83
2022-12-31T06:43:56.618Z,3.13
2022-12-31T06:46:25.773Z,1.95
2022-12-31T06:48:53.509Z,1.80
2022-12-31T06:51:22.206Z,1.60
2022-12-31T06:53:51.337Z,0.95
2022-12-31T06:56:31.275Z,1.07
2022-12-31T06:59:01.852Z,1.10
2022-12-31T07:01:44.547Z,1.20
2022-12-31T07:04:46.482Z,0.98
2022-12-31T07:07:38.448Z,1.08
2022-12-31T07:10:17.265Z,1.48
2022-12-31T07:12:53.949Z,1.90
2022-12-31T07:15:53.117Z,2.00
2022-12-31T07:18:42.247Z,3.40
2022-12-31T07:21:13.624Z,1.80
2022-12-31T07:23:42.551Z,1.92
2022-12-31T07:26:21.381Z,2.00
2022-12-31T07:29:04.665Z,1.88
2022-12-31T07:31:58.062Z,1.98
2022-12-31T07:34:46.434Z,2.13
2022-12-31T07:37:32.445Z,1.85
2022-12-31T07:40:06.608Z,1.98
2022-12-31T07:42:53.370Z,2.13
2022-12-31T07:45:25.293Z,2.08
2022-12-31T07:47:57.469Z,2.00
2022-12-31T07:50:28.584Z,1.70
2022-12-31T07:52:56.399Z,1.60
2022-12-31T07:55:24.122Z,1.70
2022-12-31T07:58:01.285Z,1.90
2022-12-31T08:00:31.184Z,1.52
2022-12-31T08:03:23.246Z,1.58
2022-12-31T08:06:02.913Z,1.50
2022-12-31T08:08:42.119Z,1.77
2022-12-31T08:11:28.025Z,1.80
2022-12-31T08:13:56.962Z,1.73
2022-12-31T08:16:24.899Z,2.00
2022-12-31T08:18:52.893Z,2.65
2022-12-31T08:21:23.836Z,2.63
2022-12-31T08:24:20.685Z,2.97
2022-12-31T08:27:23.374Z,2.38
2022-12-31T08:30:13.567Z,2.40
2022-12-31T08:32:57.395Z,2.42
2022-12-31T08:35:32.285Z,2.90
2022-12-31T08:38:12.690Z,3.03
2022-12-31T08:41:08.233Z,2.33
2022-12-31T08:43:40.248Z,3.50
2022-12-31T08:46:19.222Z,3.35
2022-12-31T08:48:48.474Z,3.20
2022-12-31T08:51:22.810Z,3.20
2022-12-31T08:53:51.333Z,3.47
2022-12-31T08:56:18.786Z,3.72
2022-12-31T08:58:59.455Z,3.63
2022-12-31T09:01:35.786Z,3.75
2022-12-31T09:04:20.304Z,3.95
2022-12-31T09:06:58.495Z,3.75
2022-12-31T09:09:42.627Z,3.95
2022-12-31T09:12:46.358Z,4.18
2022-12-31T09:15:20.231Z,4.68
2022-12-31T09:17:50.478Z,3.85
2022-12-31T09:20:24.421Z,4.47
2022-12-31T09:22:53.333Z,3.83
2022-12-31T09:25:22.953Z,4.18
2022-12-31T09:28:26.378Z,4.75
2022-12-31T09:30:56.742Z,5.10
2022-12-31T09:33:36.700Z,5.80
2022-12-31T09:36:08.056Z,7.38
2022-12-31T09:38:47.870Z,7.78
2022-12-31T09:41:48.413Z,8.10
2022-12-31T09:44:34.446Z,8.55
2022-12-31T09:47:50.519Z,7.78
2022-12-31T09:50:46.430Z,6.47
2022-12-31T09:53:38.443Z,6.18
2022-12-31T09:56:20.675Z,6.55
2022-12-31T09:59:12.794Z,6.78
2022-12-31T10:01:53.813Z,4.97
2022-12-31T10:04:47.643Z,5.82
2022-12-31T10:07:33.012Z,6.10
2022-12-31T10:10:18.780Z,6.30
2022-12-31T10:13:02.344Z,6.47
2022-12-31T10:15:40.153Z,5.63
2022-12-31T10:18:32.091Z,7.00
2022-12-31T10:21:05.803Z,11.07
2022-12-31T10:23:45.713Z,7.05
2022-12-31T10:26:19.272Z,5.90
2022-12-31T10:28:59.966Z,4.40
2022-12-31T10:32:11.112Z,5.82
2022-12-31T10:35:06.218Z,4.78
2022-12-31T10:38:02.725Z,4.07
2022-12-31T10:40:57.999Z,4.93
2022-12-31T10:43:44.193Z,4.30
2022-12-31T10:46:34.992Z,4.63
2022-12-31T10:49:41.009Z,3.63
2022-12-31T10:52:08.652Z,3.30
2022-12-31T10:55:14.069Z,3.10
2022-12-31T10:58:27.998Z,2.88
2022-12-31T11:01:04.513Z,2.20
2022-12-31T11:04:21.925Z,1.35
2022-12-31T11:07:22.062Z,1.70
2022-12-31T11:10:34.053Z,1.10
2022-12-31T11:13:10.447Z,0.82
2022-12-31T11:15:38.152Z,0.70
2022-12-31T11:18:39.157Z,1.13
2022-12-31T11:21:28.767Z,0.85
2022-12-31T11:24:25.741Z,0.50
2022-12-31T11:27:50.872Z,0.30
2022-12-31T11:30:33.712Z,0.40
2022-12-31T11:33:15.301Z,0.30
2022-12-31T11:36:26.605Z,0.35
2022-12-31T11:39:31.432Z,0.40
2022-12-31T11:42:22.320Z,1.13
2022-12-31T11:45:03.288Z,1.02
2022-12-31T11:48:20.116Z,0.65
2022-12-31T11:50:48.816Z,0.90
2022-12-31T11:53:40.428Z,1.20
2022-12-31T11:56:19.711Z,1.48
2022-12-31T11:58:53.004Z,1.60
2022-12-31T12:01:24.731Z,1.33
2022-12-31T12:03:53.116Z,1.38
2022-12-31T12:06:25.755Z,1.92
2022-12-31T12:08:59.009Z,2.40
2022-12-31T12:11:30.506Z,1.90
2022-12-31T12:13:58.381Z,2.85
2022-12-31T12:16:28.256Z,2.42
2022-12-31T12:19:08.413Z,3.63
2022-12-31T12:24:23.363Z,2.28
2022-12-31T12:26:50.922Z,3.10
2022-12-31T12:29:22.291Z,2.72
2022-12-31T12:32:04.101Z,3.50
2022-12-31T12:34:35.541Z,1.70
2022-12-31T12:37:04.274Z,2.13
2022-12-31T12:39:34.036Z,2.28
2022-12-31T12:42:12.102Z,2.58
2022-12-31T12:44:41.900Z,1.73
2022-12-31T12:49:46.191Z,2.63
2022-12-31T12:52:35.218Z,2.13
2022-12-31T12:55:30.768Z,2.88
2022-12-31T12:58:19.392Z,2.95
2022-12-31T13:01:18.022Z,2.75
2022-12-31T13:07:00.814Z,2.70
2022-12-31T13:09:34.417Z,3.35
2022-12-31T13:13:04.857Z,3.15
2022-12-31T13:15:27.650Z,2.47
2022-12-31T13:18:02.273Z,3.83
2022-12-31T13:20:45.453Z,3.95
2022-12-31T13:23:27.185Z,2.90
2022-12-31T13:26:07.182Z,3.90
2022-12-31T13:28:39.029Z,2.60
2022-12-31T13:31:21.908Z,2.63
2022-12-31T13:33:55.849Z,2.63
2022-12-31T13:36:27.314Z,3.65
2022-12-31T13:38:58.053Z,2.08
2022-12-31T13:41:31.506Z,2.20
2022-12-31T13:44:08.467Z,2.80
2022-12-31T13:46:39.232Z,2.80
2022-12-31T13:49:31.592Z,2.40
2022-12-31T13:52:08.291Z,2.20
2022-12-31T13:54:52.588Z,3.60
2022-12-31T13:57:41.494Z,2.88
2022-12-31T14:00:32.657Z,2.67
2022-12-31T14:03:18.858Z,2.42
2022-12-31T14:06:10.767Z,3.10
2022-12-31T14:08:38.668Z,1.88
2022-12-31T14:11:27.355Z,4.43
2022-12-31T14:14:01.876Z,4.43
2022-12-31T14:16:55.735Z,2.15
2022-12-31T14:19:37.918Z,3.80
2022-12-31T14:22:18.937Z,3.83
2022-12-31T14:24:51.773Z,2.55
2022-12-31T14:27:26.233Z,2.20
2022-12-31T14:30:06.124Z,2.40
2022-12-31T14:32:51.792Z,2.25
2022-12-31T14:35:39.098Z,3.05
2022-12-31T14:38:28.768Z,2.10
2022-12-31T14:40:56.510Z,2.85
2022-12-31T14:43:48.243Z,2.17
2022-12-31T14:46:21.407Z,2.50
2022-12-31T14:49:26.212Z,2.58
2022-12-31T14:51:53.854Z,2.20
2022-12-31T14:54:38.055Z,2.58
2022-12-31T14:57:24.380Z,2.80
2022-12-31T14:59:57.909Z,3.47
2022-12-31T15:02:32.973Z,3.08
2022-12-31T15:05:17.760Z,2.58
2022-12-31T15:08:11.443Z,3.50
2022-12-31T15:10:59.858Z,3.10
2022-12-31T15:13:39.693Z,2.90
2022-12-31T15:16:52.829Z,2.58
2022-12-31T15:19:37.537Z,3.35
2022-12-31T15:22:14.521Z,3.10
2022-12-31T15:24:46.913Z,5.03
2022-12-31T15:27:46.027Z,5.85
2022-12-31T15:30:37.587Z,4.30
2022-12-31T15:33:09.821Z,3.42
2022-12-31T15:35:50.792Z,2.83
2022-12-31T15:38:38.683Z,3.78
2022-12-31T15:41:27.089Z,4.30
2022-12-31T15:43:57.729Z,2.42
2022-12-31T15:46:30.484Z,3.28
2022-12-31T15:49:11.773Z,2.67
2022-12-31T15:52:08.395Z,2.75
2022-12-31T15:54:38.698Z,3.20
2022-12-31T15:57:09.492Z,2.75
2022-12-31T15:59:39.486Z,2.83
2022-12-31T16:02:23.417Z,2.15
2022-12-31T16:04:52.303Z,2.28
2022-12-31T16:07:20.310Z,3.03
2022-12-31T16:09:55.997Z,3.90
2022-12-31T16:12:32.805Z,3.58
2022-12-31T16:15:02.447Z,3.10
2022-12-31T16:17:35.480Z,3.50
2022-12-31T16:20:25.984Z,3.20
2022-12-31T16:22:57.458Z,2.85
2022-12-31T16:25:31.564Z,3.42
2022-12-31T16:28:02.614Z,4.88
2022-12-31T16:30:36.058Z,3.22
2022-12-31T16:33:06.452Z,2.30
2022-12-31T16:35:36.699Z,2.80
2022-12-31T16:40:40.685Z,2.40
2022-12-31T16:43:43.898Z,2.80
2022-12-31T16:46:31.909Z,8.10
2022-12-31T16:49:21.422Z,19.17
2022-12-31T16:51:52.340Z,16.20
2022-12-31T16:54:28.027Z,9.98
2022-12-31T16:56:57.692Z,5.47
2022-12-31T16:59:41.877Z,3.78
2022-12-31T17:02:19.396Z,4.10
2022-12-31T17:04:55.287Z,3.00
2022-12-31T17:07:27.385Z,2.92
2022-12-31T17:10:13.465Z,3.53
2022-12-31T17:13:25.388Z,4.43
2022-12-31T17:15:43.790Z,4.20
2022-12-31T17:18:19.767Z,4.22
2022-12-31T17:20:49.547Z,3.38
2022-12-31T17:23:24.683Z,3.53
2022-12-31T17:26:07.172Z,3.42
2022-12-31T17:28:47.632Z,4.00
2022-12-31T17:31:57.213Z,3.60
2022-12-31T17:34:31.030Z,8.93
2022-12-31T17:37:10.563Z,4.40
2022-12-31T17:39:44.121Z,7.05
2022-12-31T17:42:13.749Z,7.40
2022-12-31T17:44:44.623Z,5.80
2022-12-31T17:47:16.521Z,4.70
2022-12-31T17:49:45.773Z,4.82
2022-12-31T17:52:15.455Z,6.30
2022-12-31T17:54:43.428Z,5.38
2022-12-31T17:57:24.541Z,5.13
2022-12-31T17:59:52.390Z,5.07
2022-12-31T18:02:20.241Z,5.72
2022-12-31T18:04:47.916Z,6.38
2022-12-31T18:07:15.580Z,6.88
2022-12-31T18:09:44.110Z,5.03
2022-12-31T18:12:15.437Z,5.22
2022-12-31T18:14:45.634Z,6.40
2022-12-31T18:17:16.373Z,5.85
2022-12-31T18:20:04.300Z,10.75
2022-12-31T18:22:31.712Z,10.82
2022-12-31T18:24:59.316Z,7.88
2022-12-31T18:27:27.089Z,10.20
2022-12-31T18:29:59.104Z,4.65
2022-12-31T18:32:33.465Z,5.07
2022-12-31T18:35:02.034Z,4.60
2022-12-31T18:37:29.991Z,4.50
2022-12-31T18:39:57.505Z,3.80
2022-12-31T18:42:28.088Z,3.00
2022-12-31T18:44:56.007Z,3.08
2022-12-31T18:47:23.634Z,2.83
2022-12-31T18:49:51.531Z,3.88
2022-12-31T18:52:22.188Z,1.48
2022-12-31T18:54:49.942Z,1.88
2022-12-31T18:57:17.540Z,2.20
2022-12-31T18:59:45.210Z,3.97
2022-12-31T19:02:19.633Z,3.75
2022-12-31T19:04:48.185Z,8.20
2022-12-31T19:07:15.771Z,5.00
2022-12-31T19:09:45.555Z,5.45
2022-12-31T19:12:14.687Z,2.08
2022-12-31T19:14:42.260Z,1.70
2022-12-31T19:19:36.274Z,1.50
2022-12-31T19:22:03.875Z,1.30
2022-12-31T19:24:31.507Z,1.13
2022-12-31T19:27:00.951Z,2.95
2022-12-31T19:29:28.819Z,1.00
2022-12-31T19:31:58.145Z,1.45
2022-12-31T19:34:25.761Z,1.10
2022-12-31T19:36:53.297Z,1.02
2022-12-31T19:39:21.767Z,0.98
2022-12-31T19:41:56.620Z,1.88
2022-12-31T19:44:26.862Z,1.30
2022-12-31T19:46:54.464Z,3.15
2022-12-31T19:49:22.264Z,3.58
2022-12-31T19:51:49.932Z,2.55
2022-12-31T19:54:17.497Z,11.60
2022-12-31T19:56:45.084Z,1.85
2022-12-31T19:59:12.740Z,1.33
2022-12-31T20:01:40.481Z,8.85
2022-12-31T20:04:08.414Z,4.43
2022-12-31T20:06:35.932Z,4.05
2022-12-31T20:09:04.085Z,1.67
2022-12-31T20:11:31.953Z,0.77
2022-12-31T20:13:59.786Z,1.73
2022-12-31T20:16:29.686Z,1.42
2022-12-31T20:21:27.774Z,1.10
2022-12-31T20:23:55.704Z,1.20
2022-12-31T20:26:25.637Z,1.50
2022-12-31T20:31:24.646Z,0.50
2022-12-31T20:33:54.325Z,0.40
2022-12-31T20:36:22.839Z,0.45
2022-12-31T20:38:50.401Z,0.35
2022-12-31T20:41:21.467Z,0.30
2022-12-31T20:43:49.249Z,0.30
2022-12-31T20:46:19.887Z,0.40
2022-12-31T20:48:48.950Z,0.45
2022-12-31T20:51:17.848Z,0.40
2022-12-31T20:53:51.311Z,0.47
2022-12-31T20:56:19.355Z,0.40
2022-12-31T20:58:47.588Z,0.40
2022-12-31T21:01:15.836Z,0.35
2022-12-31T21:09:03.166Z,0.50
2022-12-31T21:11:49.226Z,0.30
2022-12-31T21:14:17.009Z,0.30
2022-12-31T21:16:44.737Z,0.30
2022-12-31T21:19:12.612Z,0.77
2022-12-31T21:21:40.182Z,4.68
2022-12-31T21:24:08.007Z,0.80
2022-12-31T21:26:35.638Z,3.83
2022-12-31T21:29:03.567Z,7.00
2022-12-31T21:31:31.200Z,0.20
2022-12-31T21:33:59.003Z,0.30
2022-12-31T21:36:26.614Z,2.97
2022-12-31T21:38:54.209Z,0.90
2022-12-31T21:41:40.237Z,1.73
2022-12-31T21:44:07.957Z,1.52
2022-12-31T21:46:35.537Z,4.28
2022-12-31T21:49:03.301Z,0.50
2022-12-31T21:51:30.990Z,0.65
2022-12-31T21:53:58.689Z,0.32
2022-12-31T21:56:26.413Z,0.40
2022-12-31T21:59:14.755Z,0.40
2022-12-31T22:02:01.477Z,0.20
2022-12-31T22:05:01.464Z,0.30
2022-12-31T22:07:16.941Z,0.30
2022-12-31T22:09:44.466Z,0.50
2022-12-31T22:12:12.148Z,2.03
2022-12-31T22:15:14.992Z,1.60
2022-12-31T22:17:27.602Z,0.80
2022-12-31T22:22:42.738Z,1.50
2022-12-31T22:25:10.301Z,0.88
2022-12-31T22:27:37.862Z,1.45
2022-12-31T22:30:06.218Z,1.90
2022-12-31T22:32:33.834Z,2.60
2022-12-31T22:35:01.367Z,7.38
2022-12-31T22:37:56.334Z,1.30
2022-12-31T22:40:17.355Z,0.60
2022-12-31T22:42:45.007Z,0.47
2022-12-31T22:45:12.669Z,0.30
2022-12-31T22:47:40.340Z,0.60
2022-12-31T22:50:08.352Z,0.40
2022-12-31T22:52:36.160Z,1.05
2022-12-31T22:55:04.304Z,0.35
2022-12-31T22:57:32.085Z,0.50
2022-12-31T22:59:59.724Z,0.40
2022-12-31T23:02:27.452Z,0.28
2022-12-31T23:05:15.490Z,0.28
2022-12-31T23:07:42.744Z,0.20
2022-12-31T23:10:29.260Z,0.28
2022-12-31T23:12:58.360Z,0.50
2022-12-31T23:15:44.693Z,0.40
2022-12-31T23:18:31.044Z,0.55
2022-12-31T23:21:17.196Z,1.30
2022-12-31T23:23:44.799Z,1.40
2022-12-31T23:26:12.369Z,1.10
2022-12-31T23:28:41.911Z,1.20
2022-12-31T23:31:09.758Z,0.50
2022-12-31T23:33:37.453Z,0.35
2022-12-31T23:36:06.634Z,0.40
2022-12-31T23:38:34.163Z,0.30
2022-12-31T23:41:10.792Z,0.30
2022-12-31T23:43:38.399Z,0.40
2022-12-31T23:46:05.975Z,0.43
2022-12-31T23:48:33.648Z,0.50
2022-12-31T23:51:01.293Z,0.70
2022-12-31T23:53:28.908Z,0.63
2022-12-31T23:55:56.600Z,0.70
2022-12-31T23:58:24.217Z,0.60
